sensor_id;sensor_type;location;lat;lon;timestamp;P1;durP1;ratioP1;P2;durP2;ratioP2
75152;SDS011;63734;45.218;36.708;2023-04-25T00:01:45;9.05;;;4.25;;
75152;SDS011;63734;45.218;36.708;2023-04-25T00:04:11;8.02;;;4.20;;
75152;SDS011;63734;45.218;36.708;2023-04-25T00:06:37;9.55;;;4.75;;
75152;SDS011;63734;45.218;36.708;2023-04-25T00:09:04;8.10;;;4.22;;
75152;SDS011;63734;45.218;36.708;2023-04-25T00:11:33;7.70;;;4.28;;
75152;SDS011;63734;45.218;36.708;2023-04-25T00:13:59;5.57;;;3.90;;
75152;SDS011;63734;45.218;36.708;2023-04-25T00:16:27;7.40;;;4.10;;
75152;SDS011;63734;45.218;36.708;2023-04-25T00:18:54;5.82;;;4.03;;
75152;SDS011;63734;45.218;36.708;2023-04-25T00:21:20;5.40;;;2.97;;
75152;SDS011;63734;45.218;36.708;2023-04-25T00:23:47;6.43;;;3.70;;
75152;SDS011;63734;45.218;36.708;2023-04-25T00:26:13;6.43;;;3.97;;
75152;SDS011;63734;45.218;36.708;2023-04-25T00:28:39;3.88;;;2.85;;
75152;SDS011;63734;45.218;36.708;2023-04-25T00:31:05;5.15;;;3.30;;
75152;SDS011;63734;45.218;36.708;2023-04-25T00:33:31;5.72;;;3.70;;
75152;SDS011;63734;45.218;36.708;2023-04-25T00:35:57;8.25;;;3.95;;
75152;SDS011;63734;45.218;36.708;2023-04-25T00:38:23;4.85;;;3.20;;
75152;SDS011;63734;45.218;36.708;2023-04-25T00:40:49;8.52;;;3.45;;
75152;SDS011;63734;45.218;36.708;2023-04-25T00:43:15;5.95;;;3.70;;
75152;SDS011;63734;45.218;36.708;2023-04-25T00:45:41;6.10;;;3.80;;
75152;SDS011;63734;45.218;36.708;2023-04-25T00:48:08;5.70;;;3.13;;
75152;SDS011;63734;45.218;36.708;2023-04-25T00:50:34;9.27;;;3.97;;
75152;SDS011;63734;45.218;36.708;2023-04-25T00:53:01;6.82;;;3.72;;
75152;SDS011;63734;45.218;36.708;2023-04-25T00:55:29;4.80;;;3.08;;
75152;SDS011;63734;45.218;36.708;2023-04-25T00:57:57;9.50;;;3.85;;
75152;SDS011;63734;45.218;36.708;2023-04-25T01:00:23;5.20;;;3.10;;
75152;SDS011;63734;45.218;36.708;2023-04-25T01:02:49;7.72;;;3.33;;
75152;SDS011;63734;45.218;36.708;2023-04-25T01:05:15;6.65;;;3.33;;
75152;SDS011;63734;45.218;36.708;2023-04-25T01:07:41;5.53;;;3.58;;
75152;SDS011;63734;45.218;36.708;2023-04-25T01:10:07;5.00;;;3.83;;
75152;SDS011;63734;45.218;36.708;2023-04-25T01:12:34;5.40;;;3.58;;
75152;SDS011;63734;45.218;36.708;2023-04-25T01:15:00;5.93;;;3.55;;
75152;SDS011;63734;45.218;36.708;2023-04-25T01:17:26;4.82;;;3.58;;
75152;SDS011;63734;45.218;36.708;2023-04-25T01:19:53;5.57;;;3.80;;
75152;SDS011;63734;45.218;36.708;2023-04-25T01:22:19;4.72;;;3.38;;
75152;SDS011;63734;45.218;36.708;2023-04-25T01:24:46;5.60;;;3.60;;
75152;SDS011;63734;45.218;36.708;2023-04-25T01:27:12;7.50;;;3.70;;
75152;SDS011;63734;45.218;36.708;2023-04-25T01:29:38;6.35;;;3.90;;
75152;SDS011;63734;45.218;36.708;2023-04-25T01:32:05;9.20;;;3.78;;
75152;SDS011;63734;45.218;36.708;2023-04-25T01:34:32;6.38;;;3.60;;
75152;SDS011;63734;45.218;36.708;2023-04-25T01:36:59;5.72;;;3.90;;
75152;SDS011;63734;45.218;36.708;2023-04-25T01:39:27;5.65;;;3.55;;
75152;SDS011;63734;45.218;36.708;2023-04-25T01:41:54;6.20;;;2.95;;
75152;SDS011;63734;45.218;36.708;2023-04-25T01:44:20;4.47;;;2.92;;
75152;SDS011;63734;45.218;36.708;2023-04-25T01:46:47;4.65;;;3.60;;
75152;SDS011;63734;45.218;36.708;2023-04-25T01:49:13;6.68;;;3.60;;
75152;SDS011;63734;45.218;36.708;2023-04-25T01:51:40;4.35;;;3.08;;
75152;SDS011;63734;45.218;36.708;2023-04-25T01:54:07;7.03;;;4.03;;
75152;SDS011;63734;45.218;36.708;2023-04-25T01:56:36;8.38;;;3.58;;
75152;SDS011;63734;45.218;36.708;2023-04-25T01:59:07;6.53;;;3.55;;
75152;SDS011;63734;45.218;36.708;2023-04-25T02:01:39;9.73;;;3.60;;
75152;SDS011;63734;45.218;36.708;2023-04-25T02:04:21;5.38;;;3.28;;
75152;SDS011;63734;45.218;36.708;2023-04-25T02:06:47;6.07;;;3.70;;
75152;SDS011;63734;45.218;36.708;2023-04-25T02:09:14;6.22;;;2.92;;
75152;SDS011;63734;45.218;36.708;2023-04-25T02:11:45;6.22;;;3.35;;
75152;SDS011;63734;45.218;36.708;2023-04-25T02:14:33;7.13;;;3.88;;
75152;SDS011;63734;45.218;36.708;2023-04-25T02:17:22;4.68;;;3.50;;
75152;SDS011;63734;45.218;36.708;2023-04-25T02:19:49;4.60;;;3.28;;
75152;SDS011;63734;45.218;36.708;2023-04-25T02:22:15;7.85;;;3.92;;
75152;SDS011;63734;45.218;36.708;2023-04-25T02:24:41;6.72;;;3.40;;
75152;SDS011;63734;45.218;36.708;2023-04-25T02:27:07;7.18;;;3.45;;
75152;SDS011;63734;45.218;36.708;2023-04-25T02:29:34;7.93;;;4.18;;
75152;SDS011;63734;45.218;36.708;2023-04-25T02:32:00;6.57;;;3.80;;
75152;SDS011;63734;45.218;36.708;2023-04-25T02:34:26;6.45;;;3.42;;
75152;SDS011;63734;45.218;36.708;2023-04-25T02:36:52;7.75;;;3.95;;
75152;SDS011;63734;45.218;36.708;2023-04-25T02:39:18;5.35;;;3.58;;
75152;SDS011;63734;45.218;36.708;2023-04-25T02:41:44;4.43;;;3.60;;
75152;SDS011;63734;45.218;36.708;2023-04-25T02:44:10;5.32;;;3.78;;
75152;SDS011;63734;45.218;36.708;2023-04-25T02:46:36;4.75;;;3.45;;
75152;SDS011;63734;45.218;36.708;2023-04-25T02:49:02;6.43;;;3.83;;
75152;SDS011;63734;45.218;36.708;2023-04-25T02:51:29;7.70;;;3.92;;
75152;SDS011;63734;45.218;36.708;2023-04-25T02:53:55;7.78;;;5.07;;
75152;SDS011;63734;45.218;36.708;2023-04-25T02:56:21;4.65;;;3.03;;
75152;SDS011;63734;45.218;36.708;2023-04-25T02:58:48;7.55;;;3.90;;
75152;SDS011;63734;45.218;36.708;2023-04-25T03:01:14;7.63;;;5.40;;
75152;SDS011;63734;45.218;36.708;2023-04-25T03:03:40;31.33;;;6.65;;
75152;SDS011;63734;45.218;36.708;2023-04-25T03:06:06;6.00;;;4.40;;
75152;SDS011;63734;45.218;36.708;2023-04-25T03:08:32;8.32;;;5.53;;
75152;SDS011;63734;45.218;36.708;2023-04-25T03:11:01;5.75;;;3.60;;
75152;SDS011;63734;45.218;36.708;2023-04-25T03:13:28;7.55;;;4.63;;
75152;SDS011;63734;45.218;36.708;2023-04-25T03:15:56;10.32;;;5.20;;
75152;SDS011;63734;45.218;36.708;2023-04-25T03:18:22;9.00;;;4.40;;
75152;SDS011;63734;45.218;36.708;2023-04-25T03:20:48;9.82;;;4.50;;
75152;SDS011;63734;45.218;36.708;2023-04-25T03:23:14;5.25;;;4.40;;
75152;SDS011;63734;45.218;36.708;2023-04-25T03:25:41;6.10;;;3.25;;
75152;SDS011;63734;45.218;36.708;2023-04-25T03:28:07;4.88;;;3.28;;
75152;SDS011;63734;45.218;36.708;2023-04-25T03:30:33;5.10;;;3.55;;
75152;SDS011;63734;45.218;36.708;2023-04-25T03:32:59;7.63;;;4.45;;
75152;SDS011;63734;45.218;36.708;2023-04-25T03:35:25;8.43;;;4.03;;
75152;SDS011;63734;45.218;36.708;2023-04-25T03:37:52;6.40;;;3.55;;
75152;SDS011;63734;45.218;36.708;2023-04-25T03:40:23;5.45;;;3.78;;
75152;SDS011;63734;45.218;36.708;2023-04-25T03:43:09;4.97;;;3.35;;
75152;SDS011;63734;45.218;36.708;2023-04-25T03:45:39;9.65;;;4.13;;
75152;SDS011;63734;45.218;36.708;2023-04-25T03:48:05;5.70;;;3.85;;
75152;SDS011;63734;45.218;36.708;2023-04-25T03:50:32;5.65;;;3.60;;
75152;SDS011;63734;45.218;36.708;2023-04-25T03:52:58;6.10;;;2.85;;
75152;SDS011;63734;45.218;36.708;2023-04-25T03:55:27;9.63;;;4.45;;
75152;SDS011;63734;45.218;36.708;2023-04-25T03:57:53;4.03;;;3.63;;
75152;SDS011;63734;45.218;36.708;2023-04-25T04:00:19;8.65;;;3.97;;
75152;SDS011;63734;45.218;36.708;2023-04-25T04:02:49;6.68;;;3.80;;
75152;SDS011;63734;45.218;36.708;2023-04-25T04:05:17;9.30;;;3.65;;
75152;SDS011;63734;45.218;36.708;2023-04-25T04:07:49;5.63;;;3.85;;
75152;SDS011;63734;45.218;36.708;2023-04-25T04:10:16;9.27;;;3.90;;
75152;SDS011;63734;45.218;36.708;2023-04-25T04:12:43;9.27;;;4.22;;
75152;SDS011;63734;45.218;36.708;2023-04-25T04:15:10;10.10;;;4.25;;
75152;SDS011;63734;45.218;36.708;2023-04-25T04:17:37;4.90;;;3.85;;
75152;SDS011;63734;45.218;36.708;2023-04-25T04:20:04;5.32;;;3.83;;
75152;SDS011;63734;45.218;36.708;2023-04-25T04:22:31;9.65;;;4.80;;
75152;SDS011;63734;45.218;36.708;2023-04-25T04:25:01;9.18;;;4.40;;
75152;SDS011;63734;45.218;36.708;2023-04-25T04:28:00;6.13;;;4.32;;
75152;SDS011;63734;45.218;36.708;2023-04-25T04:30:37;9.00;;;4.00;;
75152;SDS011;63734;45.218;36.708;2023-04-25T04:33:07;7.03;;;4.70;;
75152;SDS011;63734;45.218;36.708;2023-04-25T04:35:34;6.65;;;3.65;;
75152;SDS011;63734;45.218;36.708;2023-04-25T04:38:01;6.65;;;3.63;;
75152;SDS011;63734;45.218;36.708;2023-04-25T04:40:31;9.93;;;5.30;;
75152;SDS011;63734;45.218;36.708;2023-04-25T04:43:12;10.63;;;5.38;;
75152;SDS011;63734;45.218;36.708;2023-04-25T04:46:04;9.25;;;5.60;;
75152;SDS011;63734;45.218;36.708;2023-04-25T04:48:55;9.98;;;5.65;;
75152;SDS011;63734;45.218;36.708;2023-04-25T04:51:39;9.82;;;5.47;;
75152;SDS011;63734;45.218;36.708;2023-04-25T04:54:26;7.35;;;5.18;;
75152;SDS011;63734;45.218;36.708;2023-04-25T04:57:10;8.80;;;6.07;;
75152;SDS011;63734;45.218;36.708;2023-04-25T04:59:52;10.57;;;6.13;;
75152;SDS011;63734;45.218;36.708;2023-04-25T05:02:38;9.98;;;7.10;;
75152;SDS011;63734;45.218;36.708;2023-04-25T05:05:36;11.98;;;5.22;;
75152;SDS011;63734;45.218;36.708;2023-04-25T05:08:29;12.43;;;7.10;;
75152;SDS011;63734;45.218;36.708;2023-04-25T05:11:13;9.07;;;5.60;;
75152;SDS011;63734;45.218;36.708;2023-04-25T05:13:57;12.63;;;6.47;;
75152;SDS011;63734;45.218;36.708;2023-04-25T05:16:42;11.45;;;6.93;;
75152;SDS011;63734;45.218;36.708;2023-04-25T05:19:28;14.20;;;7.35;;
75152;SDS011;63734;45.218;36.708;2023-04-25T05:22:14;10.52;;;5.82;;
75152;SDS011;63734;45.218;36.708;2023-04-25T05:25:03;13.35;;;7.30;;
75152;SDS011;63734;45.218;36.708;2023-04-25T05:27:48;11.93;;;6.80;;
75152;SDS011;63734;45.218;36.708;2023-04-25T05:30:42;9.55;;;6.93;;
75152;SDS011;63734;45.218;36.708;2023-04-25T05:33:31;10.98;;;5.97;;
75152;SDS011;63734;45.218;36.708;2023-04-25T05:35:58;11.27;;;5.70;;
75152;SDS011;63734;45.218;36.708;2023-04-25T05:38:25;12.13;;;7.43;;
75152;SDS011;63734;45.218;36.708;2023-04-25T05:41:14;10.40;;;6.70;;
75152;SDS011;63734;45.218;36.708;2023-04-25T05:43:58;14.73;;;7.68;;
75152;SDS011;63734;45.218;36.708;2023-04-25T05:46:29;9.63;;;6.50;;
75152;SDS011;63734;45.218;36.708;2023-04-25T05:49:12;10.15;;;5.82;;
75152;SDS011;63734;45.218;36.708;2023-04-25T05:51:41;8.60;;;5.88;;
75152;SDS011;63734;45.218;36.708;2023-04-25T05:54:29;8.32;;;6.07;;
75152;SDS011;63734;45.218;36.708;2023-04-25T05:56:56;10.48;;;7.75;;
75152;SDS011;63734;45.218;36.708;2023-04-25T05:59:22;15.30;;;7.03;;
75152;SDS011;63734;45.218;36.708;2023-04-25T06:01:48;10.65;;;5.20;;
75152;SDS011;63734;45.218;36.708;2023-04-25T06:04:14;10.10;;;7.00;;
75152;SDS011;63734;45.218;36.708;2023-04-25T06:06:41;11.73;;;7.00;;
75152;SDS011;63734;45.218;36.708;2023-04-25T06:09:06;11.55;;;6.80;;
75152;SDS011;63734;45.218;36.708;2023-04-25T06:11:33;9.00;;;7.05;;
75152;SDS011;63734;45.218;36.708;2023-04-25T06:13:59;8.02;;;5.53;;
75152;SDS011;63734;45.218;36.708;2023-04-25T06:16:25;7.55;;;5.32;;
75152;SDS011;63734;45.218;36.708;2023-04-25T06:18:51;10.18;;;5.75;;
75152;SDS011;63734;45.218;36.708;2023-04-25T06:21:17;12.35;;;5.55;;
75152;SDS011;63734;45.218;36.708;2023-04-25T06:23:43;8.88;;;6.40;;
75152;SDS011;63734;45.218;36.708;2023-04-25T06:26:11;10.38;;;6.18;;
75152;SDS011;63734;45.218;36.708;2023-04-25T06:28:41;11.40;;;6.45;;
75152;SDS011;63734;45.218;36.708;2023-04-25T06:31:07;11.70;;;7.43;;
75152;SDS011;63734;45.218;36.708;2023-04-25T06:33:33;10.73;;;5.72;;
75152;SDS011;63734;45.218;36.708;2023-04-25T06:35:59;17.52;;;8.18;;
75152;SDS011;63734;45.218;36.708;2023-04-25T06:38:26;9.60;;;5.82;;
75152;SDS011;63734;45.218;36.708;2023-04-25T06:40:55;13.80;;;6.85;;
75152;SDS011;63734;45.218;36.708;2023-04-25T06:43:21;13.32;;;7.85;;
75152;SDS011;63734;45.218;36.708;2023-04-25T06:45:53;13.57;;;8.07;;
75152;SDS011;63734;45.218;36.708;2023-04-25T06:48:21;13.68;;;7.38;;
75152;SDS011;63734;45.218;36.708;2023-04-25T06:50:48;17.73;;;7.85;;
75152;SDS011;63734;45.218;36.708;2023-04-25T06:53:14;12.27;;;8.55;;
75152;SDS011;63734;45.218;36.708;2023-04-25T06:55:43;10.40;;;6.40;;
75152;SDS011;63734;45.218;36.708;2023-04-25T06:58:22;11.80;;;6.53;;
75152;SDS011;63734;45.218;36.708;2023-04-25T07:00:49;11.18;;;6.65;;
75152;SDS011;63734;45.218;36.708;2023-04-25T07:03:15;17.83;;;7.85;;
75152;SDS011;63734;45.218;36.708;2023-04-25T07:05:43;12.18;;;6.82;;
75152;SDS011;63734;45.218;36.708;2023-04-25T07:08:11;15.40;;;7.78;;
75152;SDS011;63734;45.218;36.708;2023-04-25T07:10:37;12.85;;;8.18;;
75152;SDS011;63734;45.218;36.708;2023-04-25T07:13:03;14.23;;;7.47;;
75152;SDS011;63734;45.218;36.708;2023-04-25T07:15:30;11.50;;;8.50;;
75152;SDS011;63734;45.218;36.708;2023-04-25T07:17:57;15.52;;;7.57;;
75152;SDS011;63734;45.218;36.708;2023-04-25T07:20:24;11.52;;;6.90;;
75152;SDS011;63734;45.218;36.708;2023-04-25T07:22:50;9.25;;;6.60;;
75152;SDS011;63734;45.218;36.708;2023-04-25T07:25:16;12.27;;;8.02;;
75152;SDS011;63734;45.218;36.708;2023-04-25T07:27:43;13.43;;;6.90;;
75152;SDS011;63734;45.218;36.708;2023-04-25T07:30:16;16.25;;;8.23;;
75152;SDS011;63734;45.218;36.708;2023-04-25T07:32:42;11.85;;;7.32;;
75152;SDS011;63734;45.218;36.708;2023-04-25T07:35:08;11.55;;;7.00;;
75152;SDS011;63734;45.218;36.708;2023-04-25T07:37:35;8.73;;;7.03;;
75152;SDS011;63734;45.218;36.708;2023-04-25T07:40:13;10.15;;;6.47;;
75152;SDS011;63734;45.218;36.708;2023-04-25T07:42:47;12.90;;;5.97;;
75152;SDS011;63734;45.218;36.708;2023-04-25T07:45:17;6.90;;;5.53;;
75152;SDS011;63734;45.218;36.708;2023-04-25T07:47:43;8.43;;;4.85;;
75152;SDS011;63734;45.218;36.708;2023-04-25T07:50:09;9.85;;;5.90;;
75152;SDS011;63734;45.218;36.708;2023-04-25T07:52:37;8.25;;;5.57;;
75152;SDS011;63734;45.218;36.708;2023-04-25T07:55:16;8.25;;;6.53;;
75152;SDS011;63734;45.218;36.708;2023-04-25T07:58:02;10.00;;;5.78;;
75152;SDS011;63734;45.218;36.708;2023-04-25T08:00:30;9.60;;;5.75;;
75152;SDS011;63734;45.218;36.708;2023-04-25T08:03:16;11.13;;;6.00;;
75152;SDS011;63734;45.218;36.708;2023-04-25T08:05:43;11.88;;;6.63;;
75152;SDS011;63734;45.218;36.708;2023-04-25T08:08:09;8.95;;;5.50;;
75152;SDS011;63734;45.218;36.708;2023-04-25T08:10:35;8.13;;;6.40;;
75152;SDS011;63734;45.218;36.708;2023-04-25T08:13:01;11.43;;;5.82;;
75152;SDS011;63734;45.218;36.708;2023-04-25T08:15:28;10.40;;;6.25;;
75152;SDS011;63734;45.218;36.708;2023-04-25T08:17:54;8.57;;;6.20;;
75152;SDS011;63734;45.218;36.708;2023-04-25T08:20:24;8.73;;;5.93;;
75152;SDS011;63734;45.218;36.708;2023-04-25T08:22:53;11.00;;;5.72;;
75152;SDS011;63734;45.218;36.708;2023-04-25T08:25:48;11.82;;;5.57;;
75152;SDS011;63734;45.218;36.708;2023-04-25T08:28:17;16.85;;;6.65;;
75152;SDS011;63734;45.218;36.708;2023-04-25T08:30:44;6.93;;;5.13;;
75152;SDS011;63734;45.218;36.708;2023-04-25T08:33:12;9.73;;;5.97;;
75152;SDS011;63734;45.218;36.708;2023-04-25T08:36:02;10.50;;;5.40;;
75152;SDS011;63734;45.218;36.708;2023-04-25T08:38:30;10.50;;;6.90;;
75152;SDS011;63734;45.218;36.708;2023-04-25T08:40:57;7.70;;;4.82;;
75152;SDS011;63734;45.218;36.708;2023-04-25T08:43:27;8.48;;;5.65;;
75152;SDS011;63734;45.218;36.708;2023-04-25T08:45:55;17.80;;;12.38;;
75152;SDS011;63734;45.218;36.708;2023-04-25T08:48:34;19.52;;;8.80;;
75152;SDS011;63734;45.218;36.708;2023-04-25T08:51:03;17.52;;;10.35;;
75152;SDS011;63734;45.218;36.708;2023-04-25T08:53:33;12.75;;;6.57;;
75152;SDS011;63734;45.218;36.708;2023-04-25T08:56:03;11.13;;;6.93;;
75152;SDS011;63734;45.218;36.708;2023-04-25T08:58:33;9.77;;;6.10;;
75152;SDS011;63734;45.218;36.708;2023-04-25T09:01:00;9.63;;;5.97;;
75152;SDS011;63734;45.218;36.708;2023-04-25T09:03:29;10.13;;;5.78;;
75152;SDS011;63734;45.218;36.708;2023-04-25T09:05:55;10.90;;;6.13;;
75152;SDS011;63734;45.218;36.708;2023-04-25T09:08:21;11.00;;;6.55;;
75152;SDS011;63734;45.218;36.708;2023-04-25T09:10:47;7.38;;;4.80;;
75152;SDS011;63734;45.218;36.708;2023-04-25T09:13:14;9.65;;;6.65;;
75152;SDS011;63734;45.218;36.708;2023-04-25T09:16:07;10.48;;;6.43;;
75152;SDS011;63734;45.218;36.708;2023-04-25T09:18:59;7.50;;;6.05;;
75152;SDS011;63734;45.218;36.708;2023-04-25T09:21:25;10.25;;;6.93;;
75152;SDS011;63734;45.218;36.708;2023-04-25T09:23:53;13.38;;;7.35;;
75152;SDS011;63734;45.218;36.708;2023-04-25T09:26:20;12.38;;;7.80;;
75152;SDS011;63734;45.218;36.708;2023-04-25T09:28:47;11.02;;;7.53;;
75152;SDS011;63734;45.218;36.708;2023-04-25T09:31:22;10.98;;;7.38;;
75152;SDS011;63734;45.218;36.708;2023-04-25T09:33:59;10.85;;;6.45;;
75152;SDS011;63734;45.218;36.708;2023-04-25T09:36:37;14.45;;;7.82;;
75152;SDS011;63734;45.218;36.708;2023-04-25T09:39:40;9.18;;;6.80;;
75152;SDS011;63734;45.218;36.708;2023-04-25T09:42:13;9.77;;;7.10;;
75152;SDS011;63734;45.218;36.708;2023-04-25T09:44:46;11.18;;;6.85;;
75152;SDS011;63734;45.218;36.708;2023-04-25T09:47:14;12.55;;;7.72;;
75152;SDS011;63734;45.218;36.708;2023-04-25T09:49:43;12.65;;;7.63;;
75152;SDS011;63734;45.218;36.708;2023-04-25T09:52:15;9.10;;;6.80;;
75152;SDS011;63734;45.218;36.708;2023-04-25T09:54:55;8.15;;;5.88;;
75152;SDS011;63734;45.218;36.708;2023-04-25T09:57:30;11.80;;;5.85;;
75152;SDS011;63734;45.218;36.708;2023-04-25T09:59:57;9.32;;;6.90;;
75152;SDS011;63734;45.218;36.708;2023-04-25T10:02:39;8.63;;;5.93;;
75152;SDS011;63734;45.218;36.708;2023-04-25T10:05:12;12.70;;;7.97;;
75152;SDS011;63734;45.218;36.708;2023-04-25T10:07:40;9.88;;;6.82;;
75152;SDS011;63734;45.218;36.708;2023-04-25T10:10:15;11.80;;;6.45;;
75152;SDS011;63734;45.218;36.708;2023-04-25T10:12:41;12.55;;;8.25;;
75152;SDS011;63734;45.218;36.708;2023-04-25T10:15:09;8.75;;;6.10;;
75152;SDS011;63734;45.218;36.708;2023-04-25T10:17:36;14.88;;;7.22;;
75152;SDS011;63734;45.218;36.708;2023-04-25T10:20:02;11.70;;;5.70;;
75152;SDS011;63734;45.218;36.708;2023-04-25T10:22:37;8.20;;;5.68;;
75152;SDS011;63734;45.218;36.708;2023-04-25T10:25:06;9.30;;;5.95;;
75152;SDS011;63734;45.218;36.708;2023-04-25T10:27:33;7.28;;;5.15;;
75152;SDS011;63734;45.218;36.708;2023-04-25T10:30:03;17.35;;;6.13;;
75152;SDS011;63734;45.218;36.708;2023-04-25T10:32:38;12.18;;;6.13;;
75152;SDS011;63734;45.218;36.708;2023-04-25T10:35:23;6.65;;;4.40;;
75152;SDS011;63734;45.218;36.708;2023-04-25T10:40:24;14.88;;;7.32;;
75152;SDS011;63734;45.218;36.708;2023-04-25T10:42:52;8.07;;;5.53;;
75152;SDS011;63734;45.218;36.708;2023-04-25T10:45:21;8.52;;;5.38;;
75152;SDS011;63734;45.218;36.708;2023-04-25T10:47:48;10.32;;;5.57;;
75152;SDS011;63734;45.218;36.708;2023-04-25T10:50:14;7.95;;;5.25;;
75152;SDS011;63734;45.218;36.708;2023-04-25T10:52:43;8.23;;;5.32;;
75152;SDS011;63734;45.218;36.708;2023-04-25T10:55:09;6.90;;;5.20;;
75152;SDS011;63734;45.218;36.708;2023-04-25T10:57:44;10.18;;;6.38;;
75152;SDS011;63734;45.218;36.708;2023-04-25T11:00:16;7.45;;;5.55;;
75152;SDS011;63734;45.218;36.708;2023-04-25T11:02:48;8.20;;;5.38;;
75152;SDS011;63734;45.218;36.708;2023-04-25T11:05:22;7.28;;;4.35;;
75152;SDS011;63734;45.218;36.708;2023-04-25T11:07:55;7.28;;;5.13;;
75152;SDS011;63734;45.218;36.708;2023-04-25T11:10:25;6.35;;;5.10;;
75152;SDS011;63734;45.218;36.708;2023-04-25T11:12:56;9.15;;;6.22;;
75152;SDS011;63734;45.218;36.708;2023-04-25T11:15:22;11.02;;;6.07;;
75152;SDS011;63734;45.218;36.708;2023-04-25T11:17:50;6.32;;;4.78;;
75152;SDS011;63734;45.218;36.708;2023-04-25T11:20:20;7.88;;;4.97;;
75152;SDS011;63734;45.218;36.708;2023-04-25T11:22:49;7.38;;;5.50;;
75152;SDS011;63734;45.218;36.708;2023-04-25T11:25:15;7.13;;;4.60;;
75152;SDS011;63734;45.218;36.708;2023-04-25T11:27:55;10.18;;;5.72;;
75152;SDS011;63734;45.218;36.708;2023-04-25T11:30:26;7.90;;;5.05;;
75152;SDS011;63734;45.218;36.708;2023-04-25T11:32:54;6.97;;;6.03;;
75152;SDS011;63734;45.218;36.708;2023-04-25T11:35:20;11.70;;;6.75;;
75152;SDS011;63734;45.218;36.708;2023-04-25T11:37:48;11.48;;;7.13;;
75152;SDS011;63734;45.218;36.708;2023-04-25T11:40:15;8.00;;;5.90;;
75152;SDS011;63734;45.218;36.708;2023-04-25T11:42:45;10.98;;;6.47;;
75152;SDS011;63734;45.218;36.708;2023-04-25T11:45:11;20.98;;;8.90;;
75152;SDS011;63734;45.218;36.708;2023-04-25T11:47:38;11.00;;;6.55;;
75152;SDS011;63734;45.218;36.708;2023-04-25T11:50:05;11.10;;;7.28;;
75152;SDS011;63734;45.218;36.708;2023-04-25T11:52:39;11.00;;;6.13;;
75152;SDS011;63734;45.218;36.708;2023-04-25T11:55:12;8.77;;;6.00;;
75152;SDS011;63734;45.218;36.708;2023-04-25T11:57:42;8.70;;;5.93;;
75152;SDS011;63734;45.218;36.708;2023-04-25T12:02:41;9.40;;;5.72;;
75152;SDS011;63734;45.218;36.708;2023-04-25T12:05:08;16.13;;;5.93;;
75152;SDS011;63734;45.218;36.708;2023-04-25T12:07:36;6.75;;;4.18;;
75152;SDS011;63734;45.218;36.708;2023-04-25T12:10:10;6.32;;;4.18;;
75152;SDS011;63734;45.218;36.708;2023-04-25T12:12:38;8.60;;;4.25;;
75152;SDS011;63734;45.218;36.708;2023-04-25T12:15:08;7.53;;;5.15;;
75152;SDS011;63734;45.218;36.708;2023-04-25T12:17:36;7.75;;;4.53;;
75152;SDS011;63734;45.218;36.708;2023-04-25T12:20:11;7.13;;;4.25;;
75152;SDS011;63734;45.218;36.708;2023-04-25T12:22:40;8.48;;;5.00;;
75152;SDS011;63734;45.218;36.708;2023-04-25T12:25:10;7.35;;;4.03;;
75152;SDS011;63734;45.218;36.708;2023-04-25T12:27:37;5.70;;;4.03;;
75152;SDS011;63734;45.218;36.708;2023-04-25T12:30:07;7.78;;;4.07;;
75152;SDS011;63734;45.218;36.708;2023-04-25T12:32:34;4.90;;;3.60;;
75152;SDS011;63734;45.218;36.708;2023-04-25T12:35:00;6.97;;;4.53;;
75152;SDS011;63734;45.218;36.708;2023-04-25T12:37:28;8.30;;;4.75;;
75152;SDS011;63734;45.218;36.708;2023-04-25T12:39:54;6.43;;;4.68;;
75152;SDS011;63734;45.218;36.708;2023-04-25T12:42:20;7.55;;;5.97;;
75152;SDS011;63734;45.218;36.708;2023-04-25T12:44:46;9.57;;;4.00;;
75152;SDS011;63734;45.218;36.708;2023-04-25T12:47:12;8.20;;;4.70;;
75152;SDS011;63734;45.218;36.708;2023-04-25T12:49:38;11.38;;;5.97;;
75152;SDS011;63734;45.218;36.708;2023-04-25T12:52:04;7.97;;;4.57;;
75152;SDS011;63734;45.218;36.708;2023-04-25T12:54:30;7.32;;;4.85;;
75152;SDS011;63734;45.218;36.708;2023-04-25T12:56:56;5.28;;;4.07;;
75152;SDS011;63734;45.218;36.708;2023-04-25T12:59:22;7.78;;;4.20;;
75152;SDS011;63734;45.218;36.708;2023-04-25T13:01:48;9.77;;;4.60;;
75152;SDS011;63734;45.218;36.708;2023-04-25T13:04:14;12.93;;;5.25;;
75152;SDS011;63734;45.218;36.708;2023-04-25T13:06:40;7.65;;;5.20;;
75152;SDS011;63734;45.218;36.708;2023-04-25T13:09:06;8.30;;;4.65;;
75152;SDS011;63734;45.218;36.708;2023-04-25T13:11:32;11.57;;;4.68;;
75152;SDS011;63734;45.218;36.708;2023-04-25T13:13:58;8.40;;;4.50;;
75152;SDS011;63734;45.218;36.708;2023-04-25T13:16:26;6.50;;;3.83;;
75152;SDS011;63734;45.218;36.708;2023-04-25T13:18:52;5.93;;;4.45;;
75152;SDS011;63734;45.218;36.708;2023-04-25T13:21:18;9.98;;;4.28;;
75152;SDS011;63734;45.218;36.708;2023-04-25T13:23:44;6.15;;;4.05;;
75152;SDS011;63734;45.218;36.708;2023-04-25T13:26:11;6.55;;;3.97;;
75152;SDS011;63734;45.218;36.708;2023-04-25T13:28:37;13.90;;;5.15;;
75152;SDS011;63734;45.218;36.708;2023-04-25T13:31:05;6.85;;;4.22;;
75152;SDS011;63734;45.218;36.708;2023-04-25T13:33:31;12.73;;;4.80;;
75152;SDS011;63734;45.218;36.708;2023-04-25T13:35:57;9.20;;;3.95;;
75152;SDS011;63734;45.218;36.708;2023-04-25T13:38:23;10.13;;;4.20;;
75152;SDS011;63734;45.218;36.708;2023-04-25T13:40:51;9.52;;;5.32;;
75152;SDS011;63734;45.218;36.708;2023-04-25T13:43:20;9.68;;;4.43;;
75152;SDS011;63734;45.218;36.708;2023-04-25T13:45:50;12.15;;;5.32;;
75152;SDS011;63734;45.218;36.708;2023-04-25T13:48:17;10.23;;;5.15;;
75152;SDS011;63734;45.218;36.708;2023-04-25T13:50:43;12.18;;;4.57;;
75152;SDS011;63734;45.218;36.708;2023-04-25T13:53:10;6.63;;;4.13;;
75152;SDS011;63734;45.218;36.708;2023-04-25T13:55:37;8.02;;;4.22;;
75152;SDS011;63734;45.218;36.708;2023-04-25T13:58:04;6.57;;;4.47;;
75152;SDS011;63734;45.218;36.708;2023-04-25T14:00:36;5.82;;;3.63;;
75152;SDS011;63734;45.218;36.708;2023-04-25T14:03:04;8.48;;;4.15;;
75152;SDS011;63734;45.218;36.708;2023-04-25T14:05:32;9.35;;;4.28;;
75152;SDS011;63734;45.218;36.708;2023-04-25T14:08:04;9.52;;;4.22;;
75152;SDS011;63734;45.218;36.708;2023-04-25T14:10:31;9.43;;;5.00;;
75152;SDS011;63734;45.218;36.708;2023-04-25T14:12:57;10.23;;;5.40;;
75152;SDS011;63734;45.218;36.708;2023-04-25T14:15:23;12.07;;;4.30;;
75152;SDS011;63734;45.218;36.708;2023-04-25T14:17:50;11.65;;;4.90;;
75152;SDS011;63734;45.218;36.708;2023-04-25T14:20:16;10.73;;;5.00;;
75152;SDS011;63734;45.218;36.708;2023-04-25T14:22:45;4.68;;;3.08;;
75152;SDS011;63734;45.218;36.708;2023-04-25T14:25:11;5.88;;;4.03;;
75152;SDS011;63734;45.218;36.708;2023-04-25T14:27:38;11.98;;;4.53;;
75152;SDS011;63734;45.218;36.708;2023-04-25T14:30:04;7.00;;;4.07;;
75152;SDS011;63734;45.218;36.708;2023-04-25T14:32:30;6.93;;;4.10;;
75152;SDS011;63734;45.218;36.708;2023-04-25T14:34:57;5.55;;;3.50;;
75152;SDS011;63734;45.218;36.708;2023-04-25T14:37:23;5.38;;;3.38;;
75152;SDS011;63734;45.218;36.708;2023-04-25T14:39:49;5.57;;;4.03;;
75152;SDS011;63734;45.218;36.708;2023-04-25T14:42:15;12.48;;;3.70;;
75152;SDS011;63734;45.218;36.708;2023-04-25T14:44:41;7.53;;;3.17;;
75152;SDS011;63734;45.218;36.708;2023-04-25T14:47:07;6.43;;;4.18;;
75152;SDS011;63734;45.218;36.708;2023-04-25T14:49:33;8.27;;;3.35;;
75152;SDS011;63734;45.218;36.708;2023-04-25T14:51:59;7.85;;;3.60;;